SARP/PSS METAR and TAF weather

Enter ICAO airport designator
Station Type Date Time Source
SARP METAR 2022/08/12 14:00 UTC NOAA

SARP 121400Z 02009KT CAVOK 19/11 Q1020


Station Type Date Time Source
SARP Decoded METAR 2022/08/12 14:00 UTC NOAA

Posadas Aero., Argentina (SARP) 27-22S 055-58W 133M
Aug 12, 2022 - 10:00 AM EDT / 2022.08.12 1400 UTC
Wind: from the NNE (020 degrees) at 10 MPH (9 KT):0
Visibility: greater than 7 mile(s):0
Temperature: 66 F (19 C)
Dew Point: 51 F (11 C)
Relative Humidity: 59%
Pressure (altimeter): 30.12 in. Hg (1020 hPa)
ob: SARP 121400Z 02009KT CAVOK 19/11 Q1020
cycle: 14

Station Type Date Time Source
SARP TAF 2022/08/12 12:30 UTC NOAA

TAF SARP 121100Z 1212/1312 07005KT CAVOK TX24/1219Z TN12/1310Z
TEMPO 1216/1220 05015KT

Example: see airport list